createdAt,value
2023-03-21T00:00:33.234Z,10.48
2023-03-21T00:01:35.499Z,10.65
2023-03-21T00:02:37.779Z,10.40
2023-03-21T00:03:40.353Z,11.20
2023-03-21T00:04:51.324Z,11.27
2023-03-21T00:05:54.760Z,11.18
2023-03-21T00:06:56.905Z,11.48
2023-03-21T00:08:01.019Z,17.52
2023-03-21T00:09:04.508Z,11.73
2023-03-21T00:10:15.380Z,18.13
2023-03-21T00:11:21.630Z,9.88
2023-03-21T00:12:23.790Z,10.55
2023-03-21T00:13:28.324Z,11.20
2023-03-21T00:15:42.671Z,10.23
2023-03-21T00:16:51.108Z,10.82
2023-03-21T00:17:58.384Z,10.35
2023-03-21T00:19:03.218Z,11.10
2023-03-21T00:20:15.349Z,11.00
2023-03-21T00:21:43.943Z,10.98
2023-03-21T00:22:42.045Z,11.00
2023-03-21T00:23:44.779Z,11.55
2023-03-21T00:24:46.955Z,11.60
2023-03-21T00:25:49.104Z,10.35
2023-03-21T00:26:51.960Z,10.82
2023-03-21T00:28:07.564Z,10.52
2023-03-21T00:29:10.632Z,10.27
2023-03-21T00:30:13.310Z,11.35
2023-03-21T00:31:15.579Z,10.80
2023-03-21T00:32:18.608Z,11.25
2023-03-21T00:33:22.818Z,9.90
2023-03-21T00:34:36.462Z,10.07
2023-03-21T00:36:05.782Z,11.45
2023-03-21T00:37:09.018Z,9.98
2023-03-21T00:38:11.311Z,9.98
2023-03-21T00:39:14.245Z,11.40
2023-03-21T00:40:25.702Z,11.30
2023-03-21T00:41:45.098Z,9.75
2023-03-21T00:42:47.227Z,10.77
2023-03-21T00:43:49.373Z,10.90
2023-03-21T00:44:51.472Z,10.35
2023-03-21T00:45:53.644Z,10.85
2023-03-21T00:47:06.565Z,10.57
2023-03-21T00:48:09.850Z,11.23
2023-03-21T00:49:12.002Z,11.50
2023-03-21T00:50:14.460Z,10.82
2023-03-21T00:51:27.214Z,11.20
2023-03-21T00:52:40.207Z,10.45
2023-03-21T00:53:43.221Z,11.57
2023-03-21T00:54:45.718Z,11.65
2023-03-21T00:55:48.606Z,10.55
2023-03-21T00:56:50.927Z,11.15
2023-03-21T00:58:01.601Z,11.45
2023-03-21T00:59:04.482Z,10.85
2023-03-21T01:00:10.999Z,11.25
2023-03-21T01:01:13.333Z,11.25
2023-03-21T01:02:26.844Z,10.90
2023-03-21T01:03:29.110Z,10.02
2023-03-21T01:04:31.217Z,11.15
2023-03-21T01:06:03.322Z,11.90
2023-03-21T01:07:05.472Z,11.65
2023-03-21T01:08:20.616Z,10.50
2023-03-21T01:09:26.818Z,10.40
2023-03-21T01:10:28.984Z,10.52
2023-03-21T01:11:31.347Z,11.60
2023-03-21T01:12:33.559Z,11.48
2023-03-21T01:13:38.411Z,11.75
2023-03-21T01:14:42.842Z,11.45
2023-03-21T01:15:50.181Z,11.30
2023-03-21T01:16:53.378Z,12.15
2023-03-21T01:17:55.820Z,11.82
2023-03-21T01:18:58.170Z,11.60
2023-03-21T01:20:00.397Z,10.50
2023-03-21T01:21:05.584Z,11.57
2023-03-21T01:22:08.735Z,11.45
2023-03-21T01:23:12.389Z,11.13
2023-03-21T01:24:15.804Z,12.13
2023-03-21T01:25:22.726Z,10.40
2023-03-21T01:26:38.093Z,12.07
2023-03-21T01:27:40.356Z,11.55
2023-03-21T01:28:43.491Z,11.63
2023-03-21T01:29:45.769Z,12.10
2023-03-21T01:30:49.256Z,11.13
2023-03-21T01:31:51.481Z,12.50
2023-03-21T01:32:53.746Z,11.93
2023-03-21T01:33:56.211Z,11.75
2023-03-21T01:34:58.474Z,11.48
2023-03-21T01:36:12.316Z,11.73
2023-03-21T01:37:15.046Z,11.30
2023-03-21T01:38:17.155Z,11.35
2023-03-21T01:39:19.346Z,11.43
2023-03-21T01:40:24.529Z,11.45
2023-03-21T01:41:41.647Z,11.68
2023-03-21T01:42:44.968Z,11.90
2023-03-21T01:43:47.565Z,11.80
2023-03-21T01:45:00.503Z,12.32
2023-03-21T01:46:49.570Z,11.77
2023-03-21T01:47:53.891Z,11.13
2023-03-21T01:49:02.891Z,12.27
2023-03-21T01:50:06.257Z,11.82
2023-03-21T01:51:09.721Z,10.75
2023-03-21T01:52:26.420Z,12.70
2023-03-21T01:53:38.074Z,12.27
2023-03-21T01:54:41.238Z,12.02
2023-03-21T01:55:43.492Z,11.05
2023-03-21T01:56:47.103Z,11.48
2023-03-21T01:58:04.949Z,11.23
2023-03-21T01:59:21.613Z,11.27
2023-03-21T02:00:25.098Z,11.55
2023-03-21T02:01:28.069Z,12.82
2023-03-21T02:02:58.266Z,11.57
2023-03-21T02:04:03.853Z,11.07
2023-03-21T02:05:06.587Z,12.32
2023-03-21T02:06:12.925Z,10.95
2023-03-21T02:07:19.230Z,11.43
2023-03-21T02:08:33.361Z,11.80
2023-03-21T02:09:42.389Z,10.70
2023-03-21T02:10:46.865Z,10.20
2023-03-21T02:11:49.596Z,11.50
2023-03-21T02:12:54.993Z,11.25
2023-03-21T02:14:06.380Z,10.77
2023-03-21T02:15:09.706Z,11.80
2023-03-21T02:16:20.091Z,10.75
2023-03-21T02:17:45.532Z,12.07
2023-03-21T02:18:58.933Z,10.45
2023-03-21T02:20:27.496Z,10.93
2023-03-21T02:21:38.686Z,10.20
2023-03-21T02:22:59.481Z,10.77
2023-03-21T02:24:01.541Z,10.65
2023-03-21T02:25:34.522Z,11.45
2023-03-21T02:26:55.075Z,11.38
2023-03-21T02:28:11.004Z,12.48
2023-03-21T02:29:34.764Z,11.20
2023-03-21T02:31:14.426Z,10.43
2023-03-21T02:32:37.879Z,12.93
2023-03-21T02:34:11.493Z,11.00
2023-03-21T02:35:25.656Z,11.07
2023-03-21T02:36:55.390Z,11.55
2023-03-21T02:38:08.812Z,11.15
2023-03-21T02:39:38.875Z,17.38
2023-03-21T02:40:50.375Z,11.23
2023-03-21T02:41:59.868Z,10.48
2023-03-21T02:43:23.072Z,10.80
2023-03-21T02:44:47.242Z,10.65
2023-03-21T02:45:53.898Z,10.82
2023-03-21T02:47:05.967Z,11.80
2023-03-21T02:48:25.593Z,11.45
2023-03-21T02:49:44.162Z,11.95
2023-03-21T02:50:52.873Z,10.98
2023-03-21T02:52:00.307Z,11.43
2023-03-21T02:53:09.179Z,11.95
2023-03-21T02:54:32.349Z,10.40
2023-03-21T02:55:36.901Z,9.95
2023-03-21T02:56:40.496Z,10.50
2023-03-21T02:57:44.215Z,10.60
2023-03-21T02:58:47.062Z,11.05
2023-03-21T02:59:55.598Z,10.32
2023-03-21T03:01:00.886Z,10.77
2023-03-21T03:02:03.444Z,10.13
2023-03-21T03:03:10.039Z,10.23
2023-03-21T03:04:23.343Z,9.65
2023-03-21T03:05:28.946Z,10.00
2023-03-21T03:07:02.470Z,10.27
2023-03-21T03:08:11.200Z,10.32
2023-03-21T03:09:38.722Z,10.02
2023-03-21T03:12:25.488Z,10.02
2023-03-21T03:13:54.704Z,10.50
2023-03-21T03:15:35.302Z,10.05
2023-03-21T03:17:02.488Z,9.50
2023-03-21T03:18:22.920Z,10.40
2023-03-21T03:19:34.408Z,9.50
2023-03-21T03:21:04.175Z,10.30
2023-03-21T03:22:24.128Z,9.57
2023-03-21T03:23:31.877Z,10.65
2023-03-21T03:24:38.216Z,10.15
2023-03-21T03:26:33.899Z,10.57
2023-03-21T03:27:39.773Z,8.88
2023-03-21T03:28:46.862Z,9.98
2023-03-21T03:29:49.904Z,10.27
2023-03-21T03:31:07.429Z,10.57
2023-03-21T03:32:12.350Z,10.68
2023-03-21T03:33:17.205Z,10.85
2023-03-21T03:34:22.721Z,11.23
2023-03-21T03:35:25.497Z,10.45
2023-03-21T03:36:34.446Z,10.43
2023-03-21T03:37:37.952Z,9.55
2023-03-21T03:38:41.089Z,9.45
2023-03-21T03:39:50.885Z,9.27
2023-03-21T03:40:56.021Z,9.52
2023-03-21T03:42:18.478Z,8.85
2023-03-21T03:43:34.241Z,9.02
2023-03-21T03:44:37.088Z,8.95
2023-03-21T03:45:50.965Z,8.85
2023-03-21T03:47:02.495Z,8.93
2023-03-21T03:48:07.836Z,9.02
2023-03-21T03:49:15.454Z,8.82
2023-03-21T03:50:27.363Z,9.35
2023-03-21T03:51:35.316Z,8.32
2023-03-21T03:52:53.564Z,8.52
2023-03-21T03:54:02.127Z,9.07
2023-03-21T03:55:04.779Z,9.00
2023-03-21T03:56:09.761Z,9.38
2023-03-21T03:57:13.968Z,10.13
2023-03-21T03:58:24.058Z,8.63
2023-03-21T03:59:29.678Z,9.43
2023-03-21T04:00:33.468Z,8.75
2023-03-21T04:01:35.707Z,9.00
2023-03-21T04:02:37.919Z,9.35
2023-03-21T04:03:49.509Z,8.45
2023-03-21T04:04:53.217Z,9.25
2023-03-21T04:05:55.386Z,9.00
2023-03-21T04:06:58.240Z,9.55
2023-03-21T04:08:00.530Z,8.70
2023-03-21T04:09:13.609Z,9.18
2023-03-21T04:10:22.792Z,8.95
2023-03-21T04:11:24.931Z,8.75
2023-03-21T04:12:27.240Z,8.55
2023-03-21T04:13:29.356Z,8.25
2023-03-21T04:14:44.137Z,9.32
2023-03-21T04:15:47.816Z,8.75
2023-03-21T04:16:50.615Z,9.00
2023-03-21T04:17:52.878Z,8.95
2023-03-21T04:18:54.981Z,9.18
2023-03-21T04:20:02.604Z,8.35
2023-03-21T04:21:13.582Z,8.93
2023-03-21T04:22:15.785Z,9.02
2023-03-21T04:23:23.286Z,8.63
2023-03-21T04:24:25.783Z,8.70
2023-03-21T04:25:34.150Z,8.45
2023-03-21T04:26:36.749Z,9.35
2023-03-21T04:27:38.894Z,9.05
2023-03-21T04:28:41.652Z,9.38
2023-03-21T04:29:43.804Z,9.43
2023-03-21T04:31:00.284Z,8.40
2023-03-21T04:32:03.920Z,9.13
2023-03-21T04:33:06.087Z,9.05
2023-03-21T04:34:12.532Z,8.73
2023-03-21T04:35:14.922Z,9.63
2023-03-21T04:36:25.225Z,8.93
2023-03-21T04:37:27.997Z,9.00
2023-03-21T04:38:30.955Z,8.88
2023-03-21T04:39:33.160Z,9.15
2023-03-21T04:40:35.608Z,9.20
2023-03-21T04:41:40.391Z,8.65
2023-03-21T04:42:42.504Z,8.98
2023-03-21T04:43:45.013Z,7.88
2023-03-21T04:44:47.957Z,9.00
2023-03-21T04:45:51.110Z,8.60
2023-03-21T04:46:53.275Z,8.57
2023-03-21T04:47:56.810Z,8.35
2023-03-21T04:48:59.322Z,8.98
2023-03-21T04:50:01.456Z,9.30
2023-03-21T04:51:03.804Z,9.60
2023-03-21T04:52:06.138Z,9.05
2023-03-21T04:53:08.287Z,8.15
2023-03-21T04:55:11.672Z,9.65
2023-03-21T04:56:14.152Z,8.75
2023-03-21T04:57:16.695Z,8.95
2023-03-21T04:58:20.298Z,9.48
2023-03-21T04:59:22.442Z,8.48
2023-03-21T05:00:25.760Z,9.07
2023-03-21T05:01:31.091Z,9.38
2023-03-21T05:02:33.278Z,8.65
2023-03-21T05:03:40.365Z,9.02
2023-03-21T05:04:42.605Z,9.70
2023-03-21T05:05:44.703Z,9.57
2023-03-21T05:06:46.814Z,9.38
2023-03-21T05:07:48.942Z,9.00
2023-03-21T05:08:51.080Z,9.07
2023-03-21T05:09:53.239Z,9.75
2023-03-21T05:10:55.462Z,9.93
2023-03-21T05:11:57.602Z,9.02
2023-03-21T05:12:59.775Z,9.38
2023-03-21T05:14:01.993Z,9.77
2023-03-21T05:15:05.558Z,8.95
2023-03-21T05:16:08.394Z,9.57
2023-03-21T05:17:10.640Z,8.93
2023-03-21T05:18:12.906Z,8.77
2023-03-21T05:19:17.451Z,9.70
2023-03-21T05:20:19.812Z,9.73
2023-03-21T05:21:23.161Z,9.60
2023-03-21T05:22:26.889Z,9.43
2023-03-21T05:23:31.624Z,9.80
2023-03-21T05:25:38.274Z,10.00
2023-03-21T05:26:41.368Z,9.93
2023-03-21T05:27:45.318Z,9.00
2023-03-21T05:28:48.159Z,9.43
2023-03-21T05:29:50.352Z,9.80
2023-03-21T05:30:52.554Z,9.18
2023-03-21T05:31:54.739Z,9.55
2023-03-21T05:32:57.077Z,8.77
2023-03-21T05:33:59.387Z,11.02
2023-03-21T05:35:01.818Z,10.13
2023-03-21T05:36:04.199Z,9.68
2023-03-21T05:37:06.400Z,9.07
2023-03-21T05:38:08.514Z,10.05
2023-03-21T05:39:10.678Z,9.60
2023-03-21T05:40:13.018Z,9.65
2023-03-21T05:41:18.758Z,8.50
2023-03-21T05:42:21.465Z,8.73
2023-03-21T05:43:23.917Z,9.02
2023-03-21T05:44:26.124Z,8.90
2023-03-21T05:45:28.273Z,9.77
2023-03-21T05:46:30.708Z,8.85
2023-03-21T05:47:33.162Z,9.48
2023-03-21T05:48:35.483Z,8.98
2023-03-21T05:49:37.571Z,9.25
2023-03-21T05:50:39.825Z,9.57
2023-03-21T05:51:42.366Z,7.95
2023-03-21T05:52:44.562Z,7.47
2023-03-21T05:53:46.732Z,8.75
2023-03-21T05:54:48.880Z,8.68
2023-03-21T05:55:51.047Z,8.65
2023-03-21T05:56:53.186Z,7.45
2023-03-21T05:57:55.412Z,7.82
2023-03-21T05:58:57.520Z,7.95
2023-03-21T05:59:59.649Z,7.80
2023-03-21T06:01:01.806Z,7.57
2023-03-21T06:02:03.969Z,8.18
2023-03-21T06:03:06.515Z,8.27
2023-03-21T06:04:09.003Z,8.90
2023-03-21T06:05:11.820Z,7.53
2023-03-21T06:06:13.965Z,8.93
2023-03-21T06:07:16.181Z,8.57
2023-03-21T06:08:18.291Z,8.57
2023-03-21T06:09:22.256Z,8.40
2023-03-21T06:10:24.517Z,8.60
2023-03-21T06:11:32.434Z,8.77
2023-03-21T06:12:34.563Z,8.25
2023-03-21T06:13:36.663Z,8.77
2023-03-21T06:14:38.831Z,7.90
2023-03-21T06:15:41.075Z,8.43
2023-03-21T06:16:44.104Z,8.73
2023-03-21T06:17:46.232Z,9.27
2023-03-21T06:18:48.494Z,8.50
2023-03-21T06:19:50.748Z,8.93
2023-03-21T06:20:54.425Z,8.93
2023-03-21T06:21:56.535Z,8.43
2023-03-21T06:22:58.715Z,8.75
2023-03-21T06:24:00.866Z,7.70
2023-03-21T06:25:04.214Z,8.63
2023-03-21T06:26:06.709Z,9.40
2023-03-21T06:27:08.955Z,8.23
2023-03-21T06:28:11.049Z,9.10
2023-03-21T06:29:13.220Z,8.75
2023-03-21T06:30:16.134Z,8.60
2023-03-21T06:31:18.420Z,8.95
2023-03-21T06:32:20.871Z,8.57
2023-03-21T06:33:23.034Z,8.52
2023-03-21T06:34:25.202Z,8.65
2023-03-21T06:35:27.361Z,8.38
2023-03-21T06:36:29.536Z,9.82
2023-03-21T06:37:31.664Z,9.63
2023-03-21T06:38:33.872Z,9.25
2023-03-21T06:39:36.244Z,9.10
2023-03-21T06:40:38.718Z,8.55
2023-03-21T06:41:41.022Z,8.20
2023-03-21T06:42:43.181Z,8.80
2023-03-21T06:43:46.022Z,8.50
2023-03-21T06:44:48.159Z,8.45
2023-03-21T06:45:50.381Z,8.38
2023-03-21T06:46:53.425Z,8.15
2023-03-21T06:47:55.744Z,8.60
2023-03-21T06:48:57.923Z,7.95
2023-03-21T06:50:00.068Z,8.00
2023-03-21T06:51:02.309Z,7.88
2023-03-21T06:52:04.495Z,7.80
2023-03-21T06:53:06.609Z,8.00
2023-03-21T06:54:09.385Z,7.38
2023-03-21T06:55:11.521Z,8.32
2023-03-21T06:56:14.877Z,8.40
2023-03-21T06:57:18.095Z,8.02
2023-03-21T06:58:21.749Z,8.57
2023-03-21T06:59:23.997Z,8.75
2023-03-21T07:00:26.533Z,8.52
2023-03-21T07:01:30.629Z,8.10
2023-03-21T07:02:32.811Z,7.80
2023-03-21T07:03:35.121Z,8.05
2023-03-21T07:04:37.180Z,8.25
2023-03-21T07:05:40.765Z,8.80
2023-03-21T07:06:43.057Z,8.65
2023-03-21T07:07:45.400Z,9.18
2023-03-21T07:08:48.084Z,8.00
2023-03-21T07:09:50.498Z,7.90
2023-03-21T07:10:55.915Z,8.13
2023-03-21T07:11:58.292Z,8.43
2023-03-21T07:13:00.703Z,8.05
2023-03-21T07:14:02.919Z,7.90
2023-03-21T07:15:07.010Z,8.52
2023-03-21T07:16:09.568Z,8.77
2023-03-21T07:17:11.765Z,7.95
2023-03-21T07:18:13.900Z,8.02
2023-03-21T07:19:16.315Z,8.38
2023-03-21T07:20:18.788Z,9.40
2023-03-21T07:21:21.039Z,8.70
2023-03-21T07:22:23.179Z,9.18
2023-03-21T07:23:26.419Z,8.38
2023-03-21T07:24:28.585Z,9.05
2023-03-21T07:25:30.882Z,8.60
2023-03-21T07:26:33.302Z,7.80
2023-03-21T07:27:36.029Z,8.23
2023-03-21T07:28:38.188Z,7.20
2023-03-21T07:29:40.808Z,8.15
2023-03-21T07:30:43.790Z,7.93
2023-03-21T07:31:46.291Z,8.38
2023-03-21T07:32:48.922Z,7.80
2023-03-21T07:33:51.083Z,8.13
2023-03-21T07:34:53.379Z,7.07
2023-03-21T07:35:57.801Z,7.13
2023-03-21T07:37:00.838Z,7.72
2023-03-21T07:38:06.372Z,7.88
2023-03-21T07:39:08.494Z,7.15
2023-03-21T07:40:12.511Z,7.68
2023-03-21T07:42:22.002Z,7.18
2023-03-21T07:43:24.121Z,7.13
2023-03-21T07:44:26.268Z,7.50
2023-03-21T07:45:28.426Z,6.85
2023-03-21T07:46:30.811Z,7.15
2023-03-21T07:47:33.037Z,7.85
2023-03-21T07:48:35.290Z,7.20
2023-03-21T07:49:37.933Z,7.13
2023-03-21T07:50:41.032Z,6.90
2023-03-21T07:51:43.291Z,7.75
2023-03-21T07:52:45.491Z,6.85
2023-03-21T07:53:48.822Z,7.75
2023-03-21T07:54:51.011Z,7.40
2023-03-21T07:55:56.521Z,7.05
2023-03-21T07:56:58.762Z,7.57
2023-03-21T07:58:04.493Z,7.32
2023-03-21T07:59:07.457Z,7.47
2023-03-21T08:00:11.044Z,7.13
2023-03-21T08:01:13.269Z,7.10
2023-03-21T08:02:16.749Z,7.30
2023-03-21T08:03:19.379Z,6.93
2023-03-21T08:04:22.675Z,7.25
2023-03-21T08:05:26.720Z,6.78
2023-03-21T08:06:29.292Z,7.30
2023-03-21T08:07:32.473Z,6.68
2023-03-21T08:08:34.628Z,7.03
2023-03-21T08:09:37.349Z,6.65
2023-03-21T08:10:39.765Z,6.75
2023-03-21T08:11:41.915Z,6.70
2023-03-21T08:12:44.616Z,6.35
2023-03-21T08:13:46.824Z,6.82
2023-03-21T08:14:48.968Z,6.68
2023-03-21T08:15:51.138Z,7.03
2023-03-21T08:16:53.285Z,7.20
2023-03-21T08:17:55.797Z,6.55
2023-03-21T08:18:57.987Z,7.10
2023-03-21T08:20:00.257Z,6.63
2023-03-21T08:21:02.876Z,6.35
2023-03-21T08:22:06.739Z,6.70
2023-03-21T08:23:08.986Z,6.85
2023-03-21T08:24:11.088Z,7.15
2023-03-21T08:25:14.544Z,6.85
2023-03-21T08:26:18.451Z,6.90
2023-03-21T08:27:20.877Z,6.70
2023-03-21T08:28:23.727Z,6.63
2023-03-21T08:29:26.137Z,6.43
2023-03-21T08:30:28.805Z,6.60
2023-03-21T08:31:30.927Z,7.32
2023-03-21T08:32:33.788Z,6.15
2023-03-21T08:33:36.289Z,6.30
2023-03-21T08:34:38.441Z,5.68
2023-03-21T08:35:41.410Z,5.70
2023-03-21T08:36:43.976Z,5.93
2023-03-21T08:37:46.297Z,6.13
2023-03-21T08:38:48.631Z,5.82
2023-03-21T08:39:51.237Z,5.60
2023-03-21T08:40:53.499Z,6.05
2023-03-21T08:41:55.597Z,5.72
2023-03-21T08:42:57.946Z,5.30
2023-03-21T08:44:00.110Z,5.38
2023-03-21T08:45:02.239Z,5.32
2023-03-21T08:46:04.723Z,5.85
2023-03-21T08:47:06.998Z,5.78
2023-03-21T08:48:09.216Z,5.57
2023-03-21T08:49:12.673Z,5.88
2023-03-21T08:50:20.236Z,5.13
2023-03-21T08:51:22.407Z,5.35
2023-03-21T08:52:25.713Z,5.53
2023-03-21T08:53:27.880Z,5.60
2023-03-21T08:54:30.273Z,5.35
2023-03-21T08:55:33.214Z,4.78
2023-03-21T08:56:37.387Z,5.07
2023-03-21T08:57:39.941Z,5.38
2023-03-21T08:58:42.083Z,4.85
2023-03-21T08:59:44.275Z,5.70
2023-03-21T09:00:46.452Z,6.25
2023-03-21T09:01:48.629Z,5.57
2023-03-21T09:02:52.101Z,5.25
2023-03-21T09:03:54.246Z,5.03
2023-03-21T09:04:59.020Z,5.20
2023-03-21T09:06:03.183Z,4.78
2023-03-21T09:07:06.239Z,4.50
2023-03-21T09:08:08.400Z,5.32
2023-03-21T09:09:11.251Z,5.20
2023-03-21T09:10:21.513Z,4.57
2023-03-21T09:11:24.407Z,5.30
2023-03-21T09:12:26.631Z,4.75
2023-03-21T09:13:28.747Z,4.28
2023-03-21T09:14:30.916Z,4.20
2023-03-21T09:15:35.479Z,4.53
2023-03-21T09:16:37.909Z,4.28
2023-03-21T09:17:44.624Z,4.82
2023-03-21T09:18:50.655Z,4.82
2023-03-21T09:19:53.520Z,4.50
2023-03-21T09:20:56.547Z,5.68
2023-03-21T09:21:58.681Z,3.97
2023-03-21T09:23:01.770Z,3.85
2023-03-21T09:24:05.710Z,4.10
2023-03-21T09:25:11.572Z,4.28
2023-03-21T09:26:14.032Z,4.07
2023-03-21T09:27:25.437Z,3.65
2023-03-21T09:28:28.000Z,3.95
2023-03-21T09:29:32.458Z,4.40
2023-03-21T09:30:36.634Z,3.78
2023-03-21T09:31:40.044Z,4.63
2023-03-21T09:32:42.408Z,4.03
2023-03-21T09:33:44.781Z,4.10
2023-03-21T09:34:48.588Z,3.40
2023-03-21T09:35:52.215Z,3.42
2023-03-21T09:36:57.114Z,3.22
2023-03-21T09:37:59.643Z,3.75
2023-03-21T09:39:04.692Z,3.80
2023-03-21T09:40:08.833Z,3.85
2023-03-21T09:41:45.253Z,4.00
2023-03-21T09:43:21.240Z,4.45
2023-03-21T09:44:48.968Z,3.95
2023-03-21T09:45:58.409Z,4.38
2023-03-21T09:47:29.429Z,4.82
2023-03-21T09:48:57.502Z,4.72
2023-03-21T09:50:14.943Z,4.53
2023-03-21T09:51:18.728Z,4.45
2023-03-21T09:52:48.470Z,3.90
2023-03-21T09:53:52.177Z,3.55
2023-03-21T09:54:55.788Z,3.22
2023-03-21T09:55:58.828Z,3.63
2023-03-21T09:57:40.208Z,3.58
2023-03-21T09:58:46.937Z,4.00
2023-03-21T09:59:51.061Z,4.13
2023-03-21T10:00:59.885Z,4.50
2023-03-21T10:02:03.380Z,4.32
2023-03-21T10:03:26.236Z,5.10
2023-03-21T10:04:29.046Z,4.47
2023-03-21T10:05:32.112Z,5.80
2023-03-21T10:06:41.253Z,4.63
2023-03-21T10:07:56.980Z,5.30
2023-03-21T10:09:06.681Z,5.65
2023-03-21T10:10:26.508Z,5.57
2023-03-21T10:11:31.968Z,5.50
2023-03-21T10:12:34.129Z,5.93
2023-03-21T10:13:40.952Z,6.60
2023-03-21T10:14:48.962Z,5.53
2023-03-21T10:15:51.399Z,5.43
2023-03-21T10:16:58.002Z,5.55
2023-03-21T10:18:03.267Z,6.30
2023-03-21T10:19:12.207Z,5.00
2023-03-21T10:20:23.590Z,4.80
2023-03-21T10:21:56.478Z,4.45
2023-03-21T10:22:56.740Z,5.47
2023-03-21T10:24:00.447Z,5.70
2023-03-21T10:25:03.135Z,5.25
2023-03-21T10:26:07.384Z,4.60
2023-03-21T10:27:09.999Z,3.90
2023-03-21T10:28:24.118Z,4.05
2023-03-21T10:29:38.412Z,3.63
2023-03-21T10:30:42.993Z,3.70
2023-03-21T10:32:47.392Z,5.30
2023-03-21T10:33:50.679Z,4.20
2023-03-21T10:36:20.442Z,4.43
2023-03-21T10:37:23.305Z,4.03
2023-03-21T10:38:27.084Z,3.75
2023-03-21T10:39:38.964Z,4.32
2023-03-21T10:40:41.088Z,3.70
2023-03-21T10:41:43.393Z,3.97
2023-03-21T10:42:45.756Z,3.90
2023-03-21T10:44:14.814Z,4.10
2023-03-21T10:45:20.062Z,3.80
2023-03-21T10:46:23.729Z,3.92
2023-03-21T10:47:32.254Z,3.78
2023-03-21T10:48:39.913Z,3.80
2023-03-21T10:50:06.263Z,3.75
2023-03-21T10:51:07.205Z,3.65
2023-03-21T10:52:11.302Z,3.85
2023-03-21T10:53:20.939Z,4.43
2023-03-21T10:54:29.376Z,4.45
2023-03-21T10:55:33.775Z,4.13
2023-03-21T10:56:41.082Z,3.88
2023-03-21T10:57:43.338Z,3.78
2023-03-21T10:58:47.144Z,4.47
2023-03-21T10:59:53.828Z,4.50
2023-03-21T11:01:00.792Z,3.78
2023-03-21T11:02:04.032Z,3.80
2023-03-21T11:03:06.911Z,4.03
2023-03-21T11:04:18.592Z,3.90
2023-03-21T11:05:28.124Z,3.88
2023-03-21T11:06:32.192Z,4.05
2023-03-21T11:07:37.114Z,4.43
2023-03-21T11:08:41.648Z,4.50
2023-03-21T11:11:01.929Z,3.60
2023-03-21T11:12:10.551Z,3.35
2023-03-21T11:13:19.260Z,3.92
2023-03-21T11:14:28.046Z,3.13
2023-03-21T11:15:37.791Z,3.10
2023-03-21T11:16:44.557Z,3.78
2023-03-21T11:17:47.991Z,3.80
2023-03-21T11:18:52.473Z,3.50
2023-03-21T11:21:04.845Z,3.42
2023-03-21T11:22:08.370Z,3.45
2023-03-21T11:23:12.988Z,3.88
2023-03-21T11:24:18.096Z,3.80
2023-03-21T11:25:23.795Z,3.75
2023-03-21T11:26:28.317Z,4.15
2023-03-21T11:27:31.767Z,3.95
2023-03-21T11:28:37.413Z,4.55
2023-03-21T11:29:41.587Z,3.72
2023-03-21T11:31:09.799Z,4.10
2023-03-21T11:32:30.650Z,5.45
2023-03-21T11:33:40.614Z,4.13
2023-03-21T11:34:57.863Z,4.43
2023-03-21T11:36:04.662Z,4.38
2023-03-21T11:37:18.557Z,3.72
2023-03-21T11:38:36.640Z,4.22
2023-03-21T11:39:41.158Z,3.67
2023-03-21T11:40:54.707Z,4.45
2023-03-21T11:41:56.870Z,4.32
2023-03-21T11:43:32.350Z,4.65
2023-03-21T11:44:43.309Z,4.90
2023-03-21T11:47:02.811Z,4.47
2023-03-21T11:48:12.890Z,4.15
2023-03-21T11:49:15.316Z,3.92
2023-03-21T11:50:35.741Z,4.63
2023-03-21T11:51:43.727Z,4.38
2023-03-21T11:52:59.743Z,4.10
2023-03-21T11:54:15.951Z,3.58
2023-03-21T11:55:25.265Z,3.83
2023-03-21T11:56:37.366Z,4.00
2023-03-21T11:57:51.878Z,3.72
2023-03-21T11:59:16.087Z,3.70
2023-03-21T12:00:25.907Z,4.00
2023-03-21T12:01:46.549Z,3.50
2023-03-21T12:03:13.527Z,3.70
2023-03-21T12:04:31.813Z,4.43
2023-03-21T12:19:21.771Z,4.72
2023-03-21T12:20:44.234Z,5.05
2023-03-21T12:21:55.010Z,4.72
2023-03-21T12:24:24.027Z,4.38
2023-03-21T12:25:29.030Z,4.00
2023-03-21T12:26:43.088Z,4.05
2023-03-21T12:28:32.429Z,3.20
2023-03-21T12:29:50.511Z,3.55
2023-03-21T12:31:25.235Z,4.20
2023-03-21T12:32:39.923Z,3.15
2023-03-21T12:34:23.813Z,3.45
2023-03-21T12:35:55.073Z,3.92
2023-03-21T12:37:34.242Z,4.00
2023-03-21T12:38:43.898Z,4.03
2023-03-21T12:39:48.158Z,3.92
2023-03-21T12:41:05.161Z,3.92
2023-03-21T12:42:34.701Z,3.95
2023-03-21T12:43:36.872Z,4.57
2023-03-21T12:44:41.956Z,4.35
2023-03-21T12:45:47.736Z,4.38
2023-03-21T12:46:54.678Z,4.60
2023-03-21T12:48:13.663Z,3.95
2023-03-21T12:49:31.132Z,4.63
2023-03-21T12:50:37.465Z,4.15
2023-03-21T12:51:45.079Z,4.10
2023-03-21T12:52:50.956Z,3.88
2023-03-21T13:05:45.639Z,3.53
2023-03-21T13:06:49.290Z,4.20
2023-03-21T13:07:57.218Z,3.90
2023-03-21T13:09:36.748Z,4.00
2023-03-21T13:10:40.530Z,3.28
2023-03-21T13:11:43.981Z,3.00
2023-03-21T13:12:56.292Z,3.13
2023-03-21T13:14:21.985Z,3.00
2023-03-21T13:15:41.767Z,3.45
2023-03-21T13:16:49.348Z,2.85
2023-03-21T13:18:32.071Z,2.70
2023-03-21T13:19:49.036Z,2.80
2023-03-21T13:20:59.329Z,2.90
2023-03-21T13:22:07.837Z,2.70
2023-03-21T13:23:36.913Z,2.90
2023-03-21T13:24:48.204Z,3.00
2023-03-21T13:25:52.698Z,2.60
2023-03-21T13:27:09.108Z,2.65
2023-03-21T13:28:32.163Z,3.10
2023-03-21T13:29:47.712Z,2.78
2023-03-21T13:30:50.281Z,2.72
2023-03-21T13:31:57.163Z,3.20
2023-03-21T13:33:06.446Z,2.30
2023-03-21T13:34:09.398Z,3.00
2023-03-21T13:35:17.344Z,2.97
2023-03-21T13:36:34.041Z,2.95
2023-03-21T13:37:40.818Z,2.50
2023-03-21T13:38:49.757Z,2.75
2023-03-21T13:39:52.075Z,2.78
2023-03-21T13:41:01.420Z,2.60
2023-03-21T13:42:05.869Z,2.20
2023-03-21T13:43:39.993Z,2.40
2023-03-21T13:44:50.307Z,2.47
2023-03-21T13:45:53.768Z,2.40
2023-03-21T13:47:04.972Z,2.28
2023-03-21T13:48:26.467Z,2.40
2023-03-21T13:49:37.573Z,3.13
2023-03-21T13:50:54.712Z,2.75
2023-03-21T13:53:15.705Z,3.47
2023-03-21T13:55:45.867Z,2.72
2023-03-21T13:56:49.900Z,2.63
2023-03-21T13:57:52.066Z,3.00
2023-03-21T13:58:59.012Z,2.60
2023-03-21T14:00:31.034Z,2.72
2023-03-21T14:01:41.404Z,3.33
2023-03-21T14:03:00.350Z,2.75
2023-03-21T14:04:20.452Z,2.75
2023-03-21T14:05:25.925Z,4.20
2023-03-21T14:06:43.085Z,3.97
2023-03-21T14:07:50.067Z,4.10
2023-03-21T14:08:53.466Z,3.60
2023-03-21T14:10:00.569Z,3.67
2023-03-21T14:11:06.747Z,3.28
2023-03-21T14:12:14.373Z,3.35
2023-03-21T14:13:20.364Z,3.17
2023-03-21T14:14:25.038Z,3.15
2023-03-21T14:15:31.471Z,3.20
2023-03-21T14:16:33.879Z,2.80
2023-03-21T14:17:36.215Z,2.70
2023-03-21T14:18:54.247Z,3.35
2023-03-21T14:20:00.796Z,2.42
2023-03-21T14:21:05.112Z,2.70
2023-03-21T14:22:12.288Z,2.30
2023-03-21T14:23:16.366Z,2.50
2023-03-21T14:24:19.815Z,2.80
2023-03-21T14:25:27.194Z,2.90
2023-03-21T14:26:35.658Z,2.53
2023-03-21T14:27:38.221Z,2.53
2023-03-21T14:28:47.103Z,2.40
2023-03-21T14:29:51.399Z,2.50
2023-03-21T14:31:00.239Z,2.30
2023-03-21T14:32:02.947Z,2.70
2023-03-21T14:33:13.993Z,2.60
2023-03-21T14:34:16.950Z,2.15
2023-03-21T14:35:21.229Z,2.45
2023-03-21T14:36:29.873Z,2.20
2023-03-21T14:37:41.640Z,2.97
2023-03-21T14:38:43.844Z,2.53
2023-03-21T14:39:59.938Z,2.70
2023-03-21T14:41:03.796Z,2.70
2023-03-21T14:42:08.003Z,2.50
2023-03-21T14:43:11.916Z,2.80
2023-03-21T14:44:28.089Z,2.80
2023-03-21T14:45:30.891Z,3.08
2023-03-21T14:46:33.592Z,3.00
2023-03-21T14:47:37.317Z,2.97
2023-03-21T14:48:39.453Z,3.17
2023-03-21T14:49:41.637Z,3.25
2023-03-21T14:50:49.466Z,2.88
2023-03-21T14:51:54.061Z,2.85
2023-03-21T14:52:56.170Z,3.10
2023-03-21T14:53:58.489Z,2.95
2023-03-21T14:55:02.249Z,3.70
2023-03-21T14:56:30.709Z,3.05
2023-03-21T14:57:33.483Z,2.90
2023-03-21T14:58:39.976Z,3.15
2023-03-21T14:59:42.637Z,3.13
2023-03-21T15:00:48.621Z,3.45
2023-03-21T15:01:51.365Z,3.13
2023-03-21T15:02:54.438Z,3.80
2023-03-21T15:03:59.967Z,2.75
2023-03-21T15:05:10.195Z,3.10
2023-03-21T15:06:13.930Z,2.85
2023-03-21T15:07:30.619Z,2.83
2023-03-21T15:08:32.758Z,2.80
2023-03-21T15:09:35.033Z,3.30
2023-03-21T15:10:38.617Z,2.95
2023-03-21T15:11:41.109Z,3.00
2023-03-21T15:12:53.540Z,3.00
2023-03-21T15:13:55.843Z,2.80
2023-03-21T15:14:59.665Z,2.63
2023-03-21T15:16:01.993Z,2.50
2023-03-21T15:17:06.029Z,2.58
2023-03-21T15:18:08.786Z,2.65
2023-03-21T15:19:16.607Z,2.72
2023-03-21T15:20:20.227Z,2.85
2023-03-21T15:21:30.924Z,2.60
2023-03-21T15:22:38.889Z,2.47
2023-03-21T15:23:43.524Z,2.90
2023-03-21T15:24:51.024Z,3.05
2023-03-21T15:25:53.360Z,3.00
2023-03-21T15:27:03.325Z,2.83
2023-03-21T15:28:06.654Z,3.17
2023-03-21T15:29:09.214Z,2.72